Flight Track Log - Related Links

Times and Time Zones

All times are in EDT time to prevent confusion due to time zone crossing. See the SWA385 flight status page for this flight to view local times or setup timezone preferences in your user account.

Time Position Orientation Groundspeed Altitude Reporting Facility
EDT Latitude Longitude Course Direction KTS MPH feet Rate Location/Type
Fri 04:51:55 PM 38.9333 -77.5667 270° West 206 237 3,200  Level Potomac TRACON
Fri 04:52:55 PM 38.9167 -77.6500 256° West 259 298 5,000 3,020 Climbing Potomac TRACON
Fri 04:54:24 PM 38.8953 -77.8028 260° West 300 345 10,700 2,897 Climbing Washington Center
Fri 04:55:49 PM 38.9153 -77.9528 280° West 315 362 13,400 2,690 Climbing Washington Center
Fri 04:56:49 PM 38.9414 -78.1058 282° West 361 415 17,200 3,305 Climbing Washington Center
Fri 04:57:00 PM 38.9501 -77.8509 270° West  Level FlightAware Approximate
Fri 04:57:47 PM 38.9614 -78.2425 281° West 382 440 19,900  Level Washington Center
Fri 04:58:47 PM 38.9644 -78.3867 272° West 395 455 22,600 2,529 Climbing Washington Center
Fri 04:59:48 PM 38.9692 -78.5311 272° West 406 467 25,000 2,213 Climbing Washington Center
Fri 05:00:49 PM 38.9739 -78.6808 272° West 406 467 27,100 1,765 Climbing Washington Center
Fri 05:01:47 PM 38.9781 -78.8333 272° West 416 479 28,500 1,576 Climbing Washington Center
Fri 05:02:47 PM 38.9822 -78.9883 272° West 429 494 30,200 2,083 Climbing Washington Center
Fri 05:03:48 PM 38.9861 -79.1436 272° West 440 506 32,700 1,377 Climbing Washington Center
Fri 05:04:49 PM 38.9900 -79.2933 272° West 440 506 33,000 151 Climbing Washington Center
Fri 05:05:47 PM 38.9914 -79.4456 271° West 435 501 33,000 1,017 Level Washington Center
Fri 05:06:47 PM 39.0008 -79.6011 275° West 430 495 35,000 1,770 Climbing Washington Center
Fri 05:07:49 PM 39.0022 -79.7481 271° West 430 495 36,600 1,000 Climbing Washington Center
Fri 05:08:47 PM 39.0033 -79.8922 271° West 424 488 37,000 247 Climbing Washington Center
Fri 05:09:26 PM 39.0028 -79.9689 269° West 409 471 37,000 233 Level Indianapolis Center
Fri 05:10:30 PM 39.0047 -80.1225 271° West 413 475 37,400 484 Climbing Indianapolis Center
Fri 05:11:30 PM 39.0078 -80.2703 272° West 414 476 38,000 293 Climbing Indianapolis Center
Fri 05:12:33 PM 39.0167 -80.4222 274° West 426 490 38,000  Level Indianapolis Center
Fri 05:13:34 PM 39.0814 -80.5653 300° West 463 533 38,000  Level Indianapolis Center
Fri 05:14:37 PM 39.1547 -80.7383 299° West 462 532 38,000  Level Indianapolis Center
Fri 05:15:39 PM 39.2181 -80.8828 300° West 465 535 38,000  Level Indianapolis Center
Fri 05:16:39 PM 39.2822 -81.0269 300° West 466 536 38,000  Level Indianapolis Center
Fri 05:17:43 PM 39.3453 -81.1736 299° West 470 541 38,000  Level Indianapolis Center
Fri 05:18:44 PM 39.4072 -81.3172 299° West 461 531 38,000  Level Indianapolis Center
Fri 05:19:48 PM 39.4697 -81.4603 300° West 459 528 38,000  Level Indianapolis Center
Fri 05:20:48 PM 39.5431 -81.6317 299° West 455 524 38,000  Level Indianapolis Center
Fri 05:21:49 PM 39.6053 -81.7761 299° West 459 528 38,000  Level Indianapolis Center
Fri 05:22:53 PM 39.6675 -81.9225 299° West 463 533 38,000  Level Indianapolis Center
Fri 05:23:54 PM 39.7269 -82.0658 298° West 464 534 38,000  Level Indianapolis Center
Fri 05:24:57 PM 39.7994 -82.2375 299° West 463 533 38,000  Level Indianapolis Center
Fri 05:25:58 PM 39.8619 -82.3867 299° West 464 534 38,000  Level Indianapolis Center
Fri 05:27:01 PM 39.9242 -82.5342 299° West 464 534 38,000  Level Indianapolis Center
Fri 05:28:02 PM 39.9853 -82.6819 298° West 462 532 38,000  Level Indianapolis Center
Fri 05:29:05 PM 40.0464 -82.8306 298° West 463 533 38,000  Level Indianapolis Center
Fri 05:30:06 PM 40.1067 -82.9769 298° West 458 527 38,000  Level Indianapolis Center
Fri 05:31:10 PM 40.1758 -83.1461 298° West 453 521 38,000  Level Indianapolis Center
Fri 05:32:10 PM 40.2344 -83.2919 298° West 453 521 38,000  Level Indianapolis Center
Fri 05:33:14 PM 40.2933 -83.4378 298° West 453 521 38,000  Level Indianapolis Center
Fri 05:34:15 PM 40.3525 -83.5839 298° West 453 521 38,000 -98 Level Indianapolis Center
Fri 05:35:16 PM 40.4103 -83.7294 298° West 450 518 37,800 -576 Descending Indianapolis Center
Fri 05:36:20 PM 40.4692 -83.8764 298° West 451 519 36,800 -1,008 Descending Indianapolis Center
Fri 05:37:21 PM 40.5353 -84.0439 297° West 441 507 35,700 -984 Descending Indianapolis Center
Fri 05:38:22 PM 40.5922 -84.1883 297° West 442 509 34,800 -919 Descending Indianapolis Center
Fri 05:39:25 PM 40.6500 -84.3325 298° West 443 510 33,800 -1,355 Descending Indianapolis Center
Fri 05:40:26 PM 40.7031 -84.4717 297° West 427 491 32,000 -1,824 Descending Indianapolis Center
Fri 05:41:30 PM 40.7578 -84.6131 297° West 428 493 30,000 -960 Descending Indianapolis Center
Fri 05:42:31 PM 40.8125 -84.7508 298° West 422 486 30,000  Level Indianapolis Center
Fri 05:43:32 PM 40.8736 -84.8794 302° West 413 475 30,000  Level Indianapolis Center
Fri 05:44:36 PM 40.9436 -85.0025 307° West 411 473 30,000  Level Indianapolis Center
Fri 05:45:37 PM 41.0122 -85.1211 307° West 408 470 30,000 -48 Level Indianapolis Center
Fri 05:46:40 PM 41.0947 -85.2642 307° West 411 473 29,900 -1,122 Descending Indianapolis Center
Fri 05:47:40 PM 41.1619 -85.3828 307° West 405 466 27,700 -2,222 Descending Indianapolis Center
Fri 05:48:55 PM 41.2453 -85.5300 307° West 395 455 24,900 -2,234 Descending Chicago Center
Fri 05:49:57 PM 41.3036 -85.6533 302° West 391 450 22,600 -2,081 Descending Chicago Center
Fri 05:50:59 PM 41.3439 -85.7886 292° West 388 447 20,600 -1,935 Descending Chicago Center
Fri 05:52:01 PM 41.3836 -85.9236 291° West 391 450 18,600 -1,887 Descending Chicago Center
Fri 05:53:03 PM 41.4208 -86.0506 291° West 377 434 16,700 -1,935 Descending Chicago Center
Fri 05:54:05 PM 41.4589 -86.1758 292° West 368 423 14,600 -2,208 Descending Chicago Center
Fri 05:55:08 PM 41.5014 -86.3228 291° West 355 409 12,100 -1,728 Descending Chicago Center
Fri 05:56:10 PM 41.5228 -86.4456 283° West 348 400 11,000 -968 Descending Chicago Center
Fri 05:57:12 PM 41.5203 -86.5742 269° West 346 398 10,100 -484 Descending Chicago Center
Fri 05:58:14 PM 41.5203 -86.7036 270° West 349 402 10,000 -189 Descending Chicago Center
Fri 05:59:19 PM 41.5203 -86.8447 270° West 326 375 9,700 -803 Descending Chicago Center
Fri 06:00:21 PM 41.5181 -86.9556 269° West 301 346 8,300 -1,306 Descending Chicago Center
Fri 06:01:23 PM 41.5181 -87.0625 270° West 291 335 7,000 -1,113 Descending Chicago Center
Fri 06:02:25 PM 41.5158 -87.1669 268° West 284 327 6,000 -919 Descending Chicago Center
Fri 06:03:27 PM 41.5150 -87.2931 270° West 285 328 5,100 -871 Descending Chicago Center
Fri 06:04:29 PM 41.5139 -87.3947 269° West 280 322 4,200 -532 Descending Chicago Center
Fri 06:05:31 PM 41.5136 -87.4908 270° West 271 312 4,000 -97 Descending Chicago Center
Fri 06:06:33 PM 41.5328 -87.5844 285° West 268 308 4,000  Level Chicago Center
Fri 06:07:35 PM 41.5606 -87.6944 289° West 266 306 4,000  Level Chicago Center
Fri 06:08:37 PM 41.5833 -87.7858 288° West 264 304 4,000 -480 Level Chicago Center
Fri 06:09:40 PM 41.6058 -87.8736 289° West 260 299 3,000 -720 Descending Chicago Center
Fri 06:10:42 PM 41.6553 -87.9144 328° Northwest 254 292 2,500 -242 Descending Chicago Center
Fri 06:11:44 PM 41.6969 -87.8633 42° Northeast 223 257 2,500 -339 Level Chicago Center
Fri 06:12:46 PM 41.7381 -87.8117 43° Northeast 186 214 1,800 -677 Descending Chicago Center
Fri 06:13:48 PM 41.7644 -87.7797 42° Northeast 148 170 1,100 -387 Descending Chicago Center
Fri 06:14:50 PM 41.7897 -87.7472 44° Northeast 144 166 1,000 -97 Descending Chicago Center
Fri 06:16:00 PM 41.7833 -87.7500 340° North  Level FlightAware Approximate

Login

Don't have an account? Register now (free) for customized features, flight alerts, and more!